WZZ5244 LEBB-EPWA
Flight info
| Callsign | WZZ5244 |
|---|---|
| Flight time | N/A |
| Altitude | 36000 |
| Route | BISKA P87 BELEN DCT DIDIG DCT TIRAV DCT ERJAZ DCT PIWIZ DCT TSU DCT OQQAL DCT RANUX/N0446F350 DCT VALEK DCT LIPNI DCT LIMGO DCT MASEK/N0445F370 DCT POZUM DCT OLUMA DCT OBOKU DCT DOSIX DCT BIMPA |
| Aircraft | A321/M-SDE1E2E3FGIJ1J4RWXY/LB1 |
Departure
| Time | N/A |
|---|---|
| Airport | Bilbao Airport (LEBB) |
Arrival
| Time | 2026-05-03 21:18 |
|---|---|
| Airport | Warsaw Chopin Airport (EPWA) |
| Time | Latitude | Longitude | Altitude | Speed | Heading |
|---|---|---|---|---|---|
| 2026-05-03 20:15 | 50.55449 | 9.03649 | 35996 ft | 481 kts | 65° |
| 2026-05-03 20:15 | 50.58409 | 9.13074 | 35995 ft | 480 kts | 65° |
| 2026-05-03 20:16 | 50.61368 | 9.22514 | 35997 ft | 480 kts | 66° |
| 2026-05-03 20:16 | 50.64314 | 9.31963 | 35994 ft | 481 kts | 66° |
| 2026-05-03 20:17 | 50.67252 | 9.41424 | 35991 ft | 481 kts | 66° |
| 2026-05-03 20:17 | 50.70189 | 9.50902 | 35990 ft | 481 kts | 66° |
| 2026-05-03 20:18 | 50.73051 | 9.60429 | 35989 ft | 479 kts | 71° |
| 2026-05-03 20:18 | 50.75243 | 9.70344 | 35989 ft | 478 kts | 73° |
| 2026-05-03 20:19 | 50.77418 | 9.80267 | 35988 ft | 478 kts | 73° |
| 2026-05-03 20:19 | 50.79569 | 9.90130 | 35986 ft | 478 kts | 73° |
| 2026-05-03 20:20 | 50.81723 | 10.00074 | 35981 ft | 478 kts | 73° |
| 2026-05-03 20:20 | 50.83863 | 10.10016 | 35982 ft | 477 kts | 73° |
| 2026-05-03 20:21 | 50.85998 | 10.19975 | 35983 ft | 477 kts | 73° |
| 2026-05-03 20:21 | 50.88127 | 10.29926 | 35985 ft | 477 kts | 73° |
| 2026-05-03 20:22 | 50.90240 | 10.39885 | 35981 ft | 477 kts | 73° |
| 2026-05-03 20:22 | 50.92350 | 10.49856 | 35986 ft | 477 kts | 73° |
| 2026-05-03 20:23 | 50.94451 | 10.59827 | 35989 ft | 477 kts | 73° |
| 2026-05-03 20:23 | 50.96543 | 10.69817 | 35997 ft | 477 kts | 73° |
| 2026-05-03 20:24 | 50.98625 | 10.79798 | 35990 ft | 476 kts | 73° |
| 2026-05-03 20:24 | 51.00695 | 10.89775 | 35996 ft | 476 kts | 73° |
| 2026-05-03 20:25 | 51.02751 | 10.99762 | 35989 ft | 476 kts | 73° |
| 2026-05-03 20:25 | 51.04805 | 11.09749 | 35987 ft | 475 kts | 74° |
| 2026-05-03 20:26 | 51.06843 | 11.19735 | 35990 ft | 475 kts | 74° |
| 2026-05-03 20:26 | 51.08872 | 11.29725 | 35985 ft | 475 kts | 74° |
| 2026-05-03 20:27 | 51.10892 | 11.39720 | 35982 ft | 474 kts | 74° |
| 2026-05-03 20:27 | 51.12897 | 11.49721 | 35982 ft | 474 kts | 74° |
| 2026-05-03 20:28 | 51.14886 | 11.59664 | 35979 ft | 474 kts | 74° |
| 2026-05-03 20:28 | 51.16880 | 11.69680 | 35976 ft | 474 kts | 74° |
| 2026-05-03 20:29 | 51.18867 | 11.79694 | 35975 ft | 474 kts | 74° |
| 2026-05-03 20:29 | 51.20840 | 11.89706 | 35974 ft | 473 kts | 74° |
| 2026-05-03 20:30 | 51.22798 | 11.99731 | 35972 ft | 473 kts | 74° |
| 2026-05-03 20:30 | 51.24757 | 12.09755 | 35968 ft | 472 kts | 74° |
| 2026-05-03 20:31 | 51.26694 | 12.19766 | 35964 ft | 472 kts | 74° |
| 2026-05-03 20:31 | 51.28612 | 12.29710 | 35965 ft | 472 kts | 74° |
| 2026-05-03 20:32 | 51.30540 | 12.39732 | 35963 ft | 472 kts | 74° |
| 2026-05-03 20:32 | 51.32463 | 12.49767 | 35964 ft | 472 kts | 74° |
| 2026-05-03 20:33 | 51.34371 | 12.59807 | 35963 ft | 472 kts | 74° |
| 2026-05-03 20:33 | 51.35943 | 12.68169 | 35962 ft | 472 kts | 74° |
| 2026-05-03 20:34 | 51.37829 | 12.78241 | 35959 ft | 472 kts | 74° |
| 2026-05-03 20:34 | 51.39712 | 12.88312 | 35958 ft | 472 kts | 74° |
| 2026-05-03 20:35 | 51.41588 | 12.98400 | 35952 ft | 472 kts | 74° |
| 2026-05-03 20:35 | 51.43454 | 13.08479 | 35950 ft | 472 kts | 74° |
| 2026-05-03 20:36 | 51.45319 | 13.18573 | 35947 ft | 472 kts | 74° |
| 2026-05-03 20:36 | 51.47172 | 13.28665 | 35943 ft | 472 kts | 74° |
| 2026-05-03 20:37 | 51.49012 | 13.38775 | 35947 ft | 471 kts | 75° |
| 2026-05-03 20:37 | 51.50837 | 13.48867 | 35944 ft | 471 kts | 75° |
| 2026-05-03 20:38 | 51.52653 | 13.58969 | 35949 ft | 471 kts | 75° |
| 2026-05-03 20:38 | 51.54453 | 13.69075 | 35951 ft | 470 kts | 75° |
| 2026-05-03 20:39 | 51.56250 | 13.79175 | 35953 ft | 470 kts | 75° |
| 2026-05-03 20:39 | 51.58039 | 13.89266 | 35950 ft | 469 kts | 75° |
| 2026-05-03 20:40 | 51.59818 | 13.99356 | 35948 ft | 469 kts | 75° |
| 2026-05-03 20:40 | 51.61584 | 14.09452 | 35945 ft | 469 kts | 75° |
| 2026-05-03 20:41 | 51.63343 | 14.19543 | 35944 ft | 468 kts | 75° |
| 2026-05-03 20:41 | 51.65091 | 14.29648 | 35946 ft | 468 kts | 75° |
| 2026-05-03 20:42 | 51.66809 | 14.39670 | 35948 ft | 468 kts | 75° |
| 2026-05-03 20:42 | 51.68531 | 14.49773 | 35951 ft | 467 kts | 75° |
| 2026-05-03 20:43 | 51.70249 | 14.59870 | 35953 ft | 467 kts | 75° |
| 2026-05-03 20:43 | 51.71963 | 14.69969 | 35949 ft | 467 kts | 75° |
| 2026-05-03 20:44 | 51.73695 | 14.80055 | 35952 ft | 467 kts | 74° |
| 2026-05-03 20:44 | 51.75436 | 14.90137 | 35954 ft | 466 kts | 74° |
| 2026-05-03 20:45 | 51.77164 | 15.00234 | 35952 ft | 466 kts | 75° |
| 2026-05-03 20:45 | 51.78871 | 15.10327 | 35956 ft | 466 kts | 75° |
| 2026-05-03 20:46 | 51.80574 | 15.20433 | 35961 ft | 466 kts | 75° |
| 2026-05-03 20:46 | 51.82255 | 15.30469 | 35961 ft | 466 kts | 75° |
| 2026-05-03 20:47 | 51.83929 | 15.40576 | 35965 ft | 466 kts | 75° |
| 2026-05-03 20:47 | 51.85602 | 15.50697 | 35966 ft | 466 kts | 75° |
| 2026-05-03 20:48 | 51.87270 | 15.60822 | 35968 ft | 465 kts | 75° |
| 2026-05-03 20:48 | 51.88925 | 15.70953 | 35968 ft | 465 kts | 75° |
| 2026-05-03 20:49 | 51.90589 | 15.81078 | 35968 ft | 465 kts | 74° |
| 2026-05-03 20:49 | 51.92295 | 15.91177 | 35970 ft | 465 kts | 74° |
| 2026-05-03 20:50 | 51.94002 | 16.01286 | 35972 ft | 465 kts | 74° |
| 2026-05-03 20:50 | 51.95679 | 16.11335 | 35975 ft | 465 kts | 75° |
| 2026-05-03 20:51 | 51.97352 | 16.21455 | 35977 ft | 464 kts | 75° |
| 2026-05-03 20:51 | 51.99010 | 16.31570 | 35977 ft | 464 kts | 75° |
| 2026-05-03 20:52 | 52.00660 | 16.41682 | 35982 ft | 463 kts | 75° |
| 2026-05-03 20:52 | 52.02309 | 16.51791 | 35976 ft | 463 kts | 75° |
| 2026-05-03 20:53 | 52.03940 | 16.61910 | 35979 ft | 463 kts | 75° |
| 2026-05-03 20:53 | 52.05551 | 16.72022 | 35979 ft | 462 kts | 75° |
| 2026-05-03 20:54 | 52.07161 | 16.82132 | 35981 ft | 462 kts | 75° |
| 2026-05-03 20:54 | 52.09568 | 16.97300 | 35979 ft | 461 kts | 75° |
| 2026-05-03 20:55 | 52.11152 | 17.07398 | 35983 ft | 461 kts | 75° |
| 2026-05-03 20:55 | 52.12726 | 17.17505 | 35988 ft | 461 kts | 75° |
| 2026-05-03 20:56 | 52.14297 | 17.27625 | 35991 ft | 461 kts | 75° |
| 2026-05-03 20:56 | 52.15845 | 17.37681 | 35991 ft | 461 kts | 75° |
| 2026-05-03 20:57 | 52.17386 | 17.47810 | 35993 ft | 461 kts | 75° |
| 2026-05-03 20:57 | 52.18937 | 17.57945 | 35994 ft | 461 kts | 75° |
| 2026-05-03 20:58 | 52.20481 | 17.68070 | 35998 ft | 460 kts | 75° |
| 2026-05-03 20:58 | 52.22005 | 17.78208 | 35999 ft | 460 kts | 75° |
| 2026-05-03 20:59 | 52.23510 | 17.88344 | 36003 ft | 460 kts | 75° |
| 2026-05-03 20:59 | 52.25003 | 17.98496 | 36001 ft | 460 kts | 76° |
| 2026-05-03 21:00 | 52.25834 | 18.07065 | 35747 ft | 459 kts | 81° |
| 2026-05-03 21:00 | 52.26411 | 18.13971 | 35393 ft | 458 kts | 81° |
| 2026-05-03 21:00 | 52.26832 | 18.19121 | 35156 ft | 458 kts | 81° |
| 2026-05-03 21:01 | 52.27249 | 18.24280 | 34913 ft | 458 kts | 81° |
| 2026-05-03 21:01 | 52.27665 | 18.29440 | 34661 ft | 459 kts | 81° |
| 2026-05-03 21:01 | 52.28080 | 18.34601 | 34426 ft | 459 kts | 81° |
| 2026-05-03 21:01 | 52.28496 | 18.39760 | 34183 ft | 459 kts | 81° |
| 2026-05-03 21:02 | 52.28908 | 18.44932 | 33886 ft | 459 kts | 81° |
| 2026-05-03 21:02 | 52.29319 | 18.50130 | 32961 ft | 464 kts | 82° |
| 2026-05-03 21:02 | 52.29732 | 18.55366 | 32153 ft | 466 kts | 82° |
| 2026-05-03 21:02 | 52.30148 | 18.60637 | 31256 ft | 470 kts | 82° |
| 2026-05-03 21:03 | 52.30566 | 18.65964 | 30300 ft | 475 kts | 82° |
| 2026-05-03 21:03 | 52.30982 | 18.71348 | 29241 ft | 479 kts | 82° |
| 2026-05-03 21:03 | 52.31396 | 18.76757 | 28219 ft | 481 kts | 82° |
| 2026-05-03 21:03 | 52.31807 | 18.82168 | 27547 ft | 476 kts | 83° |
| 2026-05-03 21:04 | 52.32206 | 18.87441 | 26887 ft | 472 kts | 83° |
| 2026-05-03 21:04 | 52.32606 | 18.92751 | 26212 ft | 469 kts | 83° |
| 2026-05-03 21:04 | 52.33002 | 18.98028 | 25543 ft | 465 kts | 83° |
| 2026-05-03 21:04 | 52.33390 | 19.03254 | 24878 ft | 462 kts | 83° |
| 2026-05-03 21:05 | 52.33775 | 19.08446 | 24218 ft | 459 kts | 83° |
| 2026-05-03 21:05 | 52.34155 | 19.13617 | 23562 ft | 456 kts | 83° |
| 2026-05-03 21:05 | 52.34530 | 19.18756 | 22837 ft | 453 kts | 83° |
| 2026-05-03 21:05 | 52.34896 | 19.23833 | 22196 ft | 447 kts | 84° |
| 2026-05-03 21:06 | 52.35189 | 19.28868 | 21468 ft | 443 kts | 88° |
| 2026-05-03 21:06 | 52.35012 | 19.33939 | 20264 ft | 451 kts | 97° |
| 2026-05-03 21:06 | 52.34676 | 19.39086 | 19173 ft | 458 kts | 97° |
| 2026-05-03 21:06 | 52.34323 | 19.44227 | 18581 ft | 451 kts | 98° |
| 2026-05-03 21:07 | 52.33968 | 19.49306 | 17883 ft | 447 kts | 98° |
| 2026-05-03 21:07 | 52.33617 | 19.54330 | 17174 ft | 443 kts | 98° |
| 2026-05-03 21:07 | 52.33274 | 19.59310 | 16500 ft | 439 kts | 98° |
| 2026-05-03 21:07 | 52.32935 | 19.64253 | 15892 ft | 435 kts | 98° |
| 2026-05-03 21:08 | 52.32596 | 19.69135 | 15299 ft | 431 kts | 98° |
| 2026-05-03 21:08 | 52.32257 | 19.73980 | 14740 ft | 427 kts | 98° |
| 2026-05-03 21:08 | 52.31921 | 19.78777 | 14171 ft | 423 kts | 98° |
| 2026-05-03 21:08 | 52.31586 | 19.83527 | 13582 ft | 419 kts | 98° |
| 2026-05-03 21:09 | 52.31254 | 19.88224 | 12962 ft | 414 kts | 98° |
| 2026-05-03 21:09 | 52.30926 | 19.92841 | 12703 ft | 400 kts | 98° |
| 2026-05-03 21:09 | 52.30611 | 19.97257 | 12571 ft | 383 kts | 98° |
| 2026-05-03 21:09 | 52.30306 | 20.01487 | 12450 ft | 367 kts | 98° |
| 2026-05-03 21:10 | 52.30010 | 20.05544 | 12315 ft | 353 kts | 98° |
| 2026-05-03 21:10 | 52.29722 | 20.09454 | 12186 ft | 340 kts | 98° |
| 2026-05-03 21:10 | 52.29445 | 20.13213 | 12060 ft | 328 kts | 98° |
| 2026-05-03 21:10 | 52.29176 | 20.16865 | 11790 ft | 321 kts | 99° |
| 2026-05-03 21:11 | 52.28907 | 20.20472 | 11446 ft | 319 kts | 99° |
| 2026-05-03 21:11 | 52.28639 | 20.24050 | 11090 ft | 316 kts | 99° |
| 2026-05-03 21:11 | 52.28372 | 20.27601 | 10737 ft | 314 kts | 99° |
| 2026-05-03 21:11 | 52.28107 | 20.31136 | 10381 ft | 312 kts | 99° |
| 2026-05-03 21:12 | 52.27844 | 20.34639 | 10034 ft | 310 kts | 99° |
| 2026-05-03 21:12 | 52.27581 | 20.38130 | 9661 ft | 309 kts | 99° |
| 2026-05-03 21:12 | 52.27319 | 20.41598 | 9285 ft | 307 kts | 99° |
| 2026-05-03 21:12 | 52.27056 | 20.45042 | 8912 ft | 305 kts | 99° |
| 2026-05-03 21:13 | 52.26796 | 20.48456 | 8440 ft | 300 kts | 99° |
| 2026-05-03 21:13 | 52.26539 | 20.51822 | 7674 ft | 297 kts | 99° |
| 2026-05-03 21:13 | 52.26285 | 20.55112 | 6966 ft | 294 kts | 98° |
| 2026-05-03 21:13 | 52.26025 | 20.58453 | 6212 ft | 292 kts | 99° |
| 2026-05-03 21:14 | 52.25773 | 20.61685 | 5443 ft | 291 kts | 99° |
| 2026-05-03 21:14 | 52.25424 | 20.64914 | 4673 ft | 286 kts | 110° |
| 2026-05-03 21:14 | 52.24670 | 20.67890 | 3952 ft | 282 kts | 119° |
| 2026-05-03 21:14 | 52.23836 | 20.70707 | 3506 ft | 269 kts | 119° |
| 2026-05-03 21:15 | 52.23074 | 20.73403 | 3150 ft | 255 kts | 118° |
| 2026-05-03 21:15 | 52.22371 | 20.75950 | 2846 ft | 238 kts | 118° |
| 2026-05-03 21:15 | 52.21707 | 20.78341 | 2555 ft | 225 kts | 119° |
| 2026-05-03 21:15 | 52.21080 | 20.80596 | 2247 ft | 210 kts | 119° |
| 2026-05-03 21:16 | 52.20505 | 20.82665 | 1990 ft | 190 kts | 120° |
| 2026-05-03 21:16 | 52.19991 | 20.84512 | 1743 ft | 170 kts | 121° |
| 2026-05-03 21:16 | 52.19514 | 20.86215 | 1520 ft | 161 kts | 120° |
| 2026-05-03 21:16 | 52.19055 | 20.87841 | 1288 ft | 156 kts | 121° |
| 2026-05-03 21:17 | 52.18610 | 20.89405 | 1049 ft | 147 kts | 118° |
| 2026-05-03 21:17 | 52.18334 | 20.90415 | 968 ft | 147 kts | 116° |
| 2026-05-03 21:17 | 52.17778 | 20.92411 | 700 ft | 142 kts | 116° |
| 2026-05-03 21:17 | 52.17374 | 20.93864 | 508 ft | 141 kts | 116° |
| 2026-05-03 21:18 | 52.16973 | 20.95299 | 354 ft | 136 kts | 117° |
| 2026-05-03 21:18 | 52.16653 | 20.96423 | 346 ft | 70 kts | 114° |
| 2026-05-03 21:18 | 52.16546 | 20.96813 | 335 ft | 27 kts | 111° |
| 2026-05-03 21:18 | 52.16510 | 20.97104 | 338 ft | 22 kts | 91° |
| 2026-05-03 21:19 | 52.16517 | 20.97286 | 334 ft | 14 kts | 85° |
| 2026-05-03 21:19 | 52.16585 | 20.97339 | 337 ft | 12 kts | 336° |
| 2026-05-03 21:19 | 52.16656 | 20.97278 | 336 ft | 12 kts | 332° |
| 2026-05-03 21:19 | 52.16708 | 20.97233 | 337 ft | 13 kts | 332° |
| 2026-05-03 21:20 | 52.16824 | 20.97132 | 337 ft | 15 kts | 332° |
| 2026-05-03 21:20 | 52.16916 | 20.97052 | 336 ft | 15 kts | 332° |
| 2026-05-03 21:20 | 52.17004 | 20.96974 | 336 ft | 12 kts | 325° |
| 2026-05-03 21:20 | 52.17002 | 20.96881 | 337 ft | 8 kts | 275° |
| 2026-05-03 21:21 | 52.17004 | 20.96841 | 339 ft | 1 kts | 276° |
| 2026-05-03 21:21 | 52.17005 | 20.96838 | 339 ft | 0 kts | 276° |